Time;durP1;ratioP1;P1;durP2;ratioP2;P2;SDS_P1;SDS_P2;PMS_P1;PMS_P2;Temp;Humidity;BMP_temperature;BMP_pressure;BME280_temperature;BME280_humidity;BME280_pressure;Samples;Min_cycle;Max_cycle;Signal;HPM_P1;HPM_P2
2023/06/06 00:00:13;;;;;;;8.75;4.82;;;;;;;8.59;100.00;102370.41;5093221;28;20028;-78
2023/06/06 00:02:43;;;;;;;10.65;4.70;;;;;;;8.57;100.00;102374.91;5075248;28;20549;-78
2023/06/06 00:05:13;;;;;;;11.70;5.40;;;;;;;8.53;100.00;102376.91;5093857;28;20039;-79
2023/06/06 00:07:39;;;;;;;8.65;4.78;;;;;;;8.50;100.00;102370.94;5093275;28;20127;-79
2023/06/06 00:10:07;;;;;;;8.48;5.30;;;;;;;8.48;100.00;102368.38;5093566;28;20089;-79
2023/06/06 00:12:32;;;;;;;10.60;5.47;;;;;;;8.46;100.00;102362.28;5094251;28;20028;-79
2023/06/06 00:15:01;;;;;;;8.50;4.60;;;;;;;8.45;100.00;102368.53;5058723;28;20464;-79
2023/06/06 00:17:27;;;;;;;9.20;5.63;;;;;;;8.45;100.00;102369.38;5093490;28;20056;-79
2023/06/06 00:19:53;;;;;;;11.23;5.40;;;;;;;8.47;100.00;102367.50;5075920;28;20443;-79
2023/06/06 00:22:22;;;;;;;10.45;5.55;;;;;;;8.47;100.00;102364.00;5093299;28;20040;-79
2023/06/06 00:24:51;;;;;;;11.25;5.20;;;;;;;8.46;100.00;102365.81;5075913;28;20043;-79
2023/06/06 00:27:17;;;;;;;10.27;5.40;;;;;;;8.46;100.00;102359.63;5093232;28;20044;-79
2023/06/06 00:29:42;;;;;;;9.88;5.22;;;;;;;8.44;100.00;102359.72;5093234;28;20032;-79
2023/06/06 00:32:07;;;;;;;13.40;5.63;;;;;;;8.40;100.00;102355.47;5092796;28;20442;-79
2023/06/06 00:34:33;;;;;;;15.27;5.50;;;;;;;8.39;100.00;102360.88;5093061;28;20046;-79
2023/06/06 00:36:58;;;;;;;8.70;5.30;;;;;;;8.37;100.00;102365.44;5092988;28;20366;-79
2023/06/06 00:39:23;;;;;;;9.70;5.00;;;;;;;8.35;100.00;102362.88;5092734;28;20400;-79
2023/06/06 00:41:49;;;;;;;9.85;5.28;;;;;;;8.33;100.00;102366.53;5093087;28;20064;-79
2023/06/06 00:44:15;;;;;;;8.48;5.47;;;;;;;8.29;100.00;102361.41;5093665;28;20039;-79
2023/06/06 00:46:41;;;;;;;10.68;5.10;;;;;;;8.26;100.00;102364.25;5093196;28;20495;-78
2023/06/06 00:49:12;;;;;;;10.55;5.65;;;;;;;8.24;100.00;102367.91;5093158;28;20032;-78
2023/06/06 00:51:39;;;;;;;10.50;5.30;;;;;;;8.22;100.00;102368.00;5093059;28;20464;-79
2023/06/06 00:54:07;;;;;;;9.25;5.65;;;;;;;8.20;100.00;102367.25;5075405;28;20090;-78
2023/06/06 00:56:36;;;;;;;8.75;5.20;;;;;;;8.19;100.00;102365.53;5093778;28;20063;-78
2023/06/06 00:59:03;;;;;;;7.75;5.32;;;;;;;8.18;100.00;102365.59;5093117;28;20392;-79
2023/06/06 01:01:33;;;;;;;13.40;5.60;;;;;;;8.15;100.00;102368.44;5093084;28;20165;-78
2023/06/06 01:04:00;;;;;;;9.73;5.60;;;;;;;8.15;100.00;102358.69;5093191;28;20039;-79
2023/06/06 01:06:26;;;;;;;10.32;5.80;;;;;;;8.14;100.00;102364.09;5092841;28;20460;-78
2023/06/06 01:08:51;;;;;;;9.10;5.80;;;;;;;8.13;100.00;102357.91;5092708;28;20032;-79
2023/06/06 01:11:26;;;;;;;17.23;6.35;;;;;;;8.12;100.00;102359.72;5093000;28;20039;-79
2023/06/06 01:14:00;;;;;;;15.48;5.93;;;;;;;8.13;100.00;102355.25;5092921;28;20028;-79
2023/06/06 01:16:27;;;;;;;16.23;5.90;;;;;;;8.10;100.00;102358.94;5092458;28;20044;-79
2023/06/06 01:18:53;;;;;;;8.38;5.65;;;;;;;8.06;100.00;102357.41;5093172;28;20036;-79
2023/06/06 01:21:19;;;;;;;16.15;5.63;;;;;;;8.05;100.00;102355.69;5096182;28;20114;-79
2023/06/06 01:23:46;;;;;;;14.05;5.93;;;;;;;8.03;100.00;102362.00;5096267;28;20428;-79
2023/06/06 01:26:12;;;;;;;11.13;6.07;;;;;;;8.01;100.00;102364.75;5096734;28;20452;-79
2023/06/06 01:28:38;;;;;;;14.95;5.53;;;;;;;7.98;100.00;102359.63;5096536;28;20024;-79
2023/06/06 01:31:06;;;;;;;7.80;4.93;;;;;;;7.94;100.00;102366.03;5096408;28;20032;-79
2023/06/06 01:33:40;;;;;;;12.32;6.00;;;;;;;7.92;100.00;102359.97;5096050;28;20040;-78
2023/06/06 01:36:30;;;;;;;9.23;5.38;;;;;;;7.88;100.00;102355.75;5095394;28;20107;-79
2023/06/06 01:39:00;;;;;;;14.50;6.45;;;;;;;7.87;100.00;102357.56;5095359;28;20058;-79
2023/06/06 01:41:29;;;;;;;12.55;6.18;;;;;;;7.85;100.00;102355.94;5095863;28;20036;-78
2023/06/06 01:43:55;;;;;;;13.95;6.10;;;;;;;7.83;100.00;102352.53;5096131;28;20089;-79
2023/06/06 01:46:24;;;;;;;14.73;6.47;;;;;;;7.82;100.00;102356.09;5095485;28;20036;-78
2023/06/06 01:48:50;;;;;;;9.90;6.05;;;;;;;7.81;100.00;102352.63;5096391;28;20052;-78
2023/06/06 01:51:16;;;;;;;8.63;5.63;;;;;;;7.82;100.00;102351.66;5095659;28;20040;-78
2023/06/06 01:53:41;;;;;;;20.40;6.30;;;;;;;7.85;100.00;102350.63;5078041;28;20426;-78
2023/06/06 01:56:12;;;;;;;12.50;6.13;;;;;;;7.87;100.00;102352.28;5095067;28;20056;-78
2023/06/06 01:58:38;;;;;;;11.00;5.57;;;;;;;7.85;100.00;102355.94;5095726;28;20096;-78
2023/06/06 02:01:03;;;;;;;11.52;6.88;;;;;;;7.82;100.00;102354.31;5095385;28;20032;-79
2023/06/06 02:03:29;;;;;;;8.32;5.60;;;;;;;7.79;100.00;102354.47;5095542;28;20024;-77
2023/06/06 02:05:55;;;;;;;9.93;5.97;;;;;;;7.80;100.00;102355.34;5077639;28;20032;-77
2023/06/06 02:08:21;;;;;;;9.63;6.18;;;;;;;7.77;100.00;102356.38;5095398;28;20036;-77
2023/06/06 02:10:46;;;;;;;12.73;5.85;;;;;;;7.74;100.00;102343.28;5095306;28;20089;-78
2023/06/06 02:13:11;;;;;;;11.50;5.50;;;;;;;7.73;100.00;102344.22;5095278;28;20028;-77
2023/06/06 02:15:37;;;;;;;11.23;5.53;;;;;;;7.72;100.00;102345.16;5095482;28;20336;-77
2023/06/06 02:18:03;;;;;;;14.48;6.50;;;;;;;7.71;100.00;102349.59;5095084;28;20032;-78
2023/06/06 02:20:28;;;;;;;10.48;6.13;;;;;;;7.69;100.00;102350.66;5076477;28;20387;-77
2023/06/06 02:22:54;;;;;;;12.95;5.95;;;;;;;7.68;100.00;102351.56;5094672;28;20035;-78
2023/06/06 02:25:23;;;;;;;13.68;6.28;;;;;;;7.69;100.00;102350.66;5095603;28;20548;-78
2023/06/06 02:27:48;;;;;;;14.20;6.25;;;;;;;7.70;100.00;102353.22;5077984;28;20115;-78
2023/06/06 02:30:14;;;;;;;11.38;6.50;;;;;;;7.71;100.00;102354.06;5094955;28;20553;-77
2023/06/06 02:32:39;;;;;;;11.50;6.35;;;;;;;7.70;100.00;102354.97;5095299;28;20024;-77
2023/06/06 02:35:05;;;;;;;11.57;6.07;;;;;;;7.68;100.00;102360.38;5094969;28;20464;-79
2023/06/06 02:37:32;;;;;;;15.50;6.80;;;;;;;7.66;100.00;102356.94;5095030;28;20051;-78
2023/06/06 02:39:58;;;;;;;9.32;5.88;;;;;;;7.65;100.00;102357.03;5077463;28;20032;-78
2023/06/06 02:42:23;;;;;;;10.20;6.32;;;;;;;7.63;100.00;102350.94;5094407;28;20539;-78
2023/06/06 02:44:49;;;;;;;15.38;6.55;;;;;;;7.63;100.00;102348.28;5094782;28;20395;-78
2023/06/06 02:47:15;;;;;;;10.27;6.40;;;;;;;7.62;100.00;102350.09;5094517;28;20059;-78
2023/06/06 02:49:40;;;;;;;16.02;6.03;;;;;;;7.61;100.00;102352.84;5094659;28;20028;-78
2023/06/06 02:52:06;;;;;;;13.73;6.50;;;;;;;7.58;100.00;102353.84;5094985;28;20421;-79
2023/06/06 02:54:32;;;;;;;14.15;6.32;;;;;;;7.56;100.00;102350.44;5076821;28;20036;-78
2023/06/06 02:56:57;;;;;;;10.68;6.05;;;;;;;7.53;100.00;102348.78;5094166;28;20048;-78
2023/06/06 02:59:23;;;;;;;11.85;6.30;;;;;;;7.54;100.00;102349.69;5094086;28;20039;-78
2023/06/06 03:01:49;;;;;;;11.15;5.85;;;;;;;7.52;100.00;102352.38;5076459;28;20039;-78
2023/06/06 03:04:14;;;;;;;14.07;5.95;;;;;;;7.53;100.00;102355.91;5094219;28;20040;-79
2023/06/06 03:06:41;;;;;;;18.65;6.80;;;;;;;7.51;100.00;102355.97;5094459;28;20024;-78
2023/06/06 03:09:07;;;;;;;13.18;6.05;;;;;;;7.51;100.00;102358.63;5094582;28;20027;-79
2023/06/06 03:11:34;;;;;;;13.55;6.15;;;;;;;7.50;100.00;102356.91;5094268;28;20024;-78
2023/06/06 03:13:59;;;;;;;11.15;6.55;;;;;;;7.50;100.00;102359.56;5094261;28;20035;-79
2023/06/06 03:16:26;;;;;;;10.52;6.00;;;;;;;7.52;100.00;102354.19;5075687;28;20472;-79
2023/06/06 03:18:57;;;;;;;12.90;5.85;;;;;;;7.53;100.00;102355.91;5094092;28;20051;-79
2023/06/06 03:21:23;;;;;;;15.43;6.28;;;;;;;7.53;100.00;102359.41;5094365;28;20475;-79
2023/06/06 03:23:48;;;;;;;16.08;6.40;;;;;;;7.55;100.00;102361.97;5093725;28;20060;-78
2023/06/06 03:26:14;;;;;;;12.57;5.80;;;;;;;7.52;100.00;102360.31;5093909;28;20173;-79
2023/06/06 03:28:40;;;;;;;13.52;6.22;;;;;;;7.53;100.00;102358.56;5094237;28;20364;-78
2023/06/06 03:31:07;;;;;;;14.88;6.15;;;;;;;7.50;100.00;102356.91;5094619;28;20093;-78
2023/06/06 03:33:33;;;;;;;11.68;6.13;;;;;;;7.51;100.00;102365.69;5093568;28;20036;-79
2023/06/06 03:35:59;;;;;;;9.57;5.70;;;;;;;7.53;100.00;102363.84;5093761;28;20107;-79
2023/06/06 03:38:24;;;;;;;8.65;5.70;;;;;;;7.54;100.00;102357.63;5093722;28;20034;-79
2023/06/06 03:40:50;;;;;;;12.38;5.68;;;;;;;7.53;100.00;102364.69;5093669;28;20038;-78
2023/06/06 03:43:15;;;;;;;15.90;6.30;;;;;;;7.54;100.00;102365.56;5092919;28;20047;-79
2023/06/06 03:45:40;;;;;;;9.65;5.78;;;;;;;7.55;100.00;102361.97;5093784;28;20122;-78
2023/06/06 03:48:09;;;;;;;16.85;6.32;;;;;;;7.56;100.00;102361.03;5093613;28;20039;-79
2023/06/06 03:50:34;;;;;;;11.82;5.85;;;;;;;7.58;100.00;102361.78;5093647;28;20110;-79
2023/06/06 03:53:00;;;;;;;14.05;5.72;;;;;;;7.61;100.00;102358.13;5094164;28;20464;-79
2023/06/06 03:55:26;;;;;;;16.50;6.57;;;;;;;7.64;100.00;102358.81;5075369;28;20039;-79
2023/06/06 03:57:52;;;;;;;14.50;6.57;;;;;;;7.67;100.00;102356.00;5094329;28;20105;-79
2023/06/06 04:00:18;;;;;;;14.85;5.68;;;;;;;7.69;100.00;102364.72;5094175;28;20039;-79
2023/06/06 04:02:46;;;;;;;11.38;5.65;;;;;;;7.71;100.00;102365.50;5075890;28;20145;-79
2023/06/06 04:05:12;;;;;;;14.85;5.57;;;;;;;7.71;100.00;102362.84;5094186;28;20068;-79
2023/06/06 04:07:38;;;;;;;11.73;5.85;;;;;;;7.74;100.00;102361.84;5093480;28;20043;-79
2023/06/06 04:10:04;;;;;;;13.45;5.88;;;;;;;7.75;100.00;102360.91;5093418;28;20024;-79
2023/06/06 04:12:29;;;;;;;13.82;5.75;;;;;;;7.79;100.00;102367.72;5093277;28;20430;-79
2023/06/06 04:14:55;;;;;;;12.38;6.20;;;;;;;7.80;100.00;102365.94;5075094;28;20380;-79
2023/06/06 04:17:22;;;;;;;11.52;5.53;;;;;;;7.84;100.00;102367.50;5075647;28;20060;-79
2023/06/06 04:19:47;;;;;;;12.55;5.72;;;;;;;7.87;100.00;102362.03;5093345;28;20040;-79
2023/06/06 04:22:17;;;;;;;14.13;5.70;;;;;;;7.91;100.00;102367.06;5093729;28;20043;-79
2023/06/06 04:24:42;;;;;;;16.95;5.70;;;;;;;7.95;100.00;102365.94;5093391;28;20028;-79
2023/06/06 04:27:09;;;;;;;10.65;5.20;;;;;;;7.99;100.00;102360.50;5093189;28;20055;-78
2023/06/06 04:29:35;;;;;;;15.45;5.47;;;;;;;8.02;100.00;102363.81;5093063;28;20028;-78
2023/06/06 04:32:04;;;;;;;14.05;5.70;;;;;;;8.06;100.00;102364.50;5093122;28;20119;-78
2023/06/06 04:34:30;;;;;;;21.45;6.13;;;;;;;8.11;100.00;102360.66;5093033;28;20468;-77
2023/06/06 04:37:05;;;;;;;20.65;6.45;;;;;;;8.16;100.00;102365.69;5093138;28;20032;-78
2023/06/06 04:39:32;;;;;;;17.85;6.00;;;;;;;8.21;100.00;102362.78;5093060;28;20065;-78
2023/06/06 04:41:58;;;;;;;12.18;5.68;;;;;;;8.25;100.00;102361.66;5074902;28;20040;-78
2023/06/06 04:44:24;;;;;;;13.32;5.75;;;;;;;8.30;100.00;102363.13;5092944;28;20032;-79
2023/06/06 04:46:52;;;;;;;13.20;5.47;;;;;;;8.36;100.00;102355.75;5074641;28;20060;-78
2023/06/06 04:49:18;;;;;;;12.30;5.45;;;;;;;8.41;100.00;102362.50;5093072;28;20456;-78
2023/06/06 04:51:44;;;;;;;17.77;5.63;;;;;;;8.46;100.00;102363.16;5092965;28;20052;-78
2023/06/06 04:54:10;;;;;;;12.27;5.38;;;;;;;8.52;100.00;102363.72;5094876;28;20111;-77
2023/06/06 04:56:38;;;;;;;20.73;6.38;;;;;;;8.58;100.00;102368.69;5096480;28;20095;-78
2023/06/06 04:59:07;;;;;;;10.48;5.00;;;;;;;8.62;100.00;102363.09;5096632;28;20024;-78
2023/06/06 05:01:34;;;;;;;11.63;5.38;;;;;;;8.68;100.00;102363.72;5096631;28;20024;-79
2023/06/06 05:04:00;;;;;;;10.43;5.40;;;;;;;8.73;100.00;102364.28;5096261;28;20387;-78
2023/06/06 05:06:27;;;;;;;11.70;5.10;;;;;;;8.78;100.00;102356.91;5096464;28;20036;-78
2023/06/06 05:08:54;;;;;;;10.57;4.80;;;;;;;8.84;100.00;102364.50;5096198;28;20109;-78
2023/06/06 05:11:19;;;;;;;14.00;5.38;;;;;;;8.90;100.00;102366.81;5097169;28;20036;-78
2023/06/06 05:13:45;;;;;;;16.00;5.13;;;;;;;8.96;100.00;102352.31;5096290;28;20028;-78
2023/06/06 05:16:11;;;;;;;12.60;5.15;;;;;;;9.03;100.00;102356.28;5096204;28;20036;-78
2023/06/06 05:18:36;;;;;;;11.38;4.68;;;;;;;9.09;100.00;102353.28;5096405;28;20456;-79
2023/06/06 05:21:02;;;;;;;16.80;5.57;;;;;;;9.16;100.00;102351.94;5096280;28;20036;-78
2023/06/06 05:23:31;;;;;;;16.40;5.50;;;;;;;9.24;100.00;102351.50;5096067;28;20030;-78
2023/06/06 05:25:58;;;;;;;11.63;4.88;;;;;;;9.32;100.00;102357.19;5096276;28;20040;-78
2023/06/06 05:28:24;;;;;;;12.63;4.97;;;;;;;9.41;100.00;102355.78;5096189;28;20020;-78
2023/06/06 05:30:52;;;;;;;13.02;5.35;;;;;;;9.51;100.00;102356.91;5095773;28;20039;-79
2023/06/06 05:33:17;;;;;;;14.20;5.38;;;;;;;9.63;100.00;102359.75;5095830;28;20036;-79
2023/06/06 05:35:43;;;;;;;14.40;5.38;;;;;;;9.74;100.00;102365.25;5095715;28;20472;-78
2023/06/06 05:38:08;;;;;;;9.23;5.18;;;;;;;9.85;100.00;102364.56;5096247;28;20491;-78
2023/06/06 05:40:33;;;;;;;13.48;5.22;;;;;;;9.96;100.00;102366.56;5095916;28;20039;-78
2023/06/06 05:42:59;;;;;;;9.85;4.38;;;;;;;10.05;100.00;102355.34;5095380;28;20043;-79
2023/06/06 05:45:24;;;;;;;11.13;5.45;;;;;;;10.17;100.00;102359.88;5095387;28;20039;-80
2023/06/06 05:47:50;;;;;;;14.60;5.07;;;;;;;10.29;100.00;102368.00;5060636;28;20036;-79
2023/06/06 05:50:15;;;;;;;18.33;4.78;;;;;;;10.41;100.00;102359.25;5095505;28;20024;-79
2023/06/06 05:52:41;;;;;;;12.10;4.80;;;;;;;10.54;100.00;102360.16;5095492;28;20024;-81
2023/06/06 05:55:07;;;;;;;18.38;4.75;;;;;;;10.68;100.00;102361.88;5095868;28;20426;-80
2023/06/06 05:57:33;;;;;;;11.82;5.32;;;;;;;10.83;100.00;102357.34;5095850;28;20444;-83
2023/06/06 06:00:00;;;;;;;11.32;5.20;;;;;;;11.01;100.00;102362.38;5077099;28;20066;-79
2023/06/06 06:02:28;;;;;;;14.63;5.47;;;;;;;11.22;100.00;102362.72;5095232;28;20433;-81
2023/06/06 06:04:56;;;;;;;15.77;4.82;;;;;;;11.46;100.00;102357.47;5076344;28;20123;-80
2023/06/06 06:07:22;;;;;;;10.70;4.93;;;;;;;11.68;100.00;102364.81;5094956;28;20036;-80
2023/06/06 06:09:47;;;;;;;12.80;4.68;;;;;;;11.82;100.00;102364.69;5095059;28;20039;-79
2023/06/06 06:12:12;;;;;;;10.80;4.80;;;;;;;12.05;100.00;102362.22;5095572;28;20038;-80
2023/06/06 06:14:38;;;;;;;12.82;4.75;;;;;;;12.22;100.00;102357.44;5076587;28;20399;-80
2023/06/06 06:17:03;;;;;;;12.68;4.90;;;;;;;12.30;100.00;102352.38;5094721;28;20028;-78
2023/06/06 06:19:29;;;;;;;8.75;4.53;;;;;;;12.46;100.00;102352.09;5094896;28;20040;-80
2023/06/06 06:21:54;;;;;;;8.93;4.68;;;;;;;12.44;100.00;102354.06;5076678;28;20024;-78
2023/06/06 06:24:20;;;;;;;17.05;4.95;;;;;;;12.57;100.00;102359.31;5094666;28;20043;-79
2023/06/06 06:26:46;;;;;;;13.68;4.88;;;;;;;12.78;100.00;102356.81;5094746;28;20077;-79
2023/06/06 06:29:11;;;;;;;10.02;5.10;;;;;;;12.95;100.00;102359.06;5094754;28;20035;-79
2023/06/06 06:31:37;;;;;;;11.65;4.78;;;;;;;13.02;100.00;102354.97;5094799;28;20044;-79
2023/06/06 06:34:02;;;;;;;8.88;4.60;;;;;;;13.08;100.00;102352.78;5094207;28;20457;-77
2023/06/06 06:36:28;;;;;;;10.18;4.57;;;;;;;13.11;100.00;102355.25;5094705;28;20479;-79
2023/06/06 06:38:53;;;;;;;9.15;4.93;;;;;;;13.25;100.00;102352.31;5095050;28;20024;-79
2023/06/06 06:41:18;;;;;;;10.65;4.20;;;;;;;13.36;100.00;102355.06;5094398;28;20498;-80
2023/06/06 06:43:44;;;;;;;14.95;5.22;;;;;;;13.46;100.00;102365.03;5075935;28;20115;-79
2023/06/06 06:46:09;;;;;;;7.93;4.50;;;;;;;13.63;100.00;102358.31;5094465;28;20341;-80
2023/06/06 06:48:34;;;;;;;7.57;4.30;;;;;;;13.77;100.00;102367.94;5094021;28;20036;-80
2023/06/06 06:51:00;;;;;;;9.48;4.63;;;;;;;13.86;100.00;102356.50;5094178;28;20113;-80
2023/06/06 06:53:26;;;;;;;11.80;4.30;;;;;;;13.93;100.00;102355.88;5094749;28;20027;-80
2023/06/06 06:55:55;;;;;;;10.80;4.88;;;;;;;13.97;100.00;102359.13;5094632;28;20057;-79
2023/06/06 06:58:33;;;;;;;12.80;4.53;;;;;;;14.08;100.00;102360.97;5095622;28;20059;-80
2023/06/06 07:01:01;;;;;;;10.30;4.43;;;;;;;14.24;100.00;102355.19;5076753;28;20032;-80
2023/06/06 07:03:27;;;;;;;15.63;4.80;;;;;;;14.28;100.00;102356.63;5094066;28;20028;-80
2023/06/06 07:05:53;;;;;;;9.95;4.78;;;;;;;14.27;100.00;102355.81;5095002;28;20467;-80
2023/06/06 07:08:18;;;;;;;11.40;4.60;;;;;;;14.36;100.00;102351.50;5094061;28;20031;-80
2023/06/06 07:10:44;;;;;;;13.05;4.25;;;;;;;14.45;100.00;102360.59;5076360;28;20039;-81
2023/06/06 07:13:13;;;;;;;11.00;4.20;;;;;;;14.66;100.00;102355.31;5094088;28;20388;-80
2023/06/06 07:15:39;;;;;;;13.45;4.50;;;;;;;14.76;100.00;102364.28;5094095;28;20024;-83
2023/06/06 07:18:04;;;;;;;13.38;5.53;;;;;;;14.98;100.00;102359.78;5093182;28;20036;-81
2023/06/06 07:20:30;;;;;;;11.20;4.25;;;;;;;15.02;100.00;102361.22;5094268;28;20119;-83
2023/06/06 07:22:56;;;;;;;11.13;4.55;;;;;;;15.01;100.00;102361.34;5076087;28;20039;-82
2023/06/06 07:25:22;;;;;;;9.95;4.70;;;;;;;15.11;100.00;102367.63;5075731;28;20032;-82
2023/06/06 07:27:48;;;;;;;10.07;4.63;;;;;;;15.29;100.00;102355.28;5093834;28;20381;-80
2023/06/06 07:30:14;;;;;;;11.50;4.55;;;;;;;15.60;100.00;102354.44;5094059;28;20032;-83
2023/06/06 07:32:44;;;;;;;8.98;4.63;;;;;;;15.74;100.00;102359.44;5093965;28;20035;-82
2023/06/06 07:35:11;;;;;;;10.20;4.38;;;;;;;15.80;100.00;102342.81;5094068;28;20468;-83
2023/06/06 07:37:37;;;;;;;12.77;4.57;;;;;;;15.91;100.00;102349.91;5094463;28;20464;-83
2023/06/06 07:40:05;;;;;;;13.73;4.60;;;;;;;16.02;100.00;102351.66;5093934;28;20078;-83
2023/06/06 07:42:31;;;;;;;10.90;4.15;;;;;;;16.13;100.00;102356.88;5076385;28;20024;-82
2023/06/06 07:44:56;;;;;;;12.55;4.15;;;;;;;16.27;100.00;102349.41;5094086;28;20104;-81
2023/06/06 07:47:23;;;;;;;13.20;4.75;;;;;;;16.35;100.00;102346.88;5075649;28;20512;-81
2023/06/06 07:49:50;;;;;;;13.65;5.00;;;;;;;16.47;100.00;102339.53;5093646;28;20049;-83
2023/06/06 07:52:16;;;;;;;15.88;5.10;;;;;;;16.66;100.00;102342.22;5093944;28;20039;-81
2023/06/06 07:54:42;;;;;;;13.15;4.85;;;;;;;16.71;100.00;102339.09;5094304;28;20036;-83
2023/06/06 07:57:11;;;;;;;13.57;5.15;;;;;;;16.77;100.00;102335.00;5094124;28;20044;-83
2023/06/06 07:59:38;;;;;;;19.13;5.18;;;;;;;16.83;100.00;102337.09;5093667;28;20086;-82
2023/06/06 08:02:03;;;;;;;9.10;3.85;;;;;;;17.10;100.00;102339.88;5094140;28;20123;-83
2023/06/06 08:04:29;;;;;;;9.48;4.38;;;;;;;17.26;100.00;102333.91;5094292;28;20066;-83
2023/06/06 08:06:55;;;;;;;10.70;4.65;;;;;;;17.35;100.00;102340.25;5093664;28;20039;-83
2023/06/06 08:09:20;;;;;;;10.82;4.88;;;;;;;17.42;100.00;102340.47;5093588;28;20032;-83
2023/06/06 08:11:46;;;;;;;9.45;4.38;;;;;;;17.54;100.00;102338.47;5075241;28;20028;-84
2023/06/06 08:14:11;;;;;;;8.77;4.70;;;;;;;17.70;100.00;102332.44;5075807;28;20399;-84
2023/06/06 08:16:37;;;;;;;14.75;4.95;;;;;;;17.94;100.00;102338.16;5093427;28;20412;-84
2023/06/06 08:19:03;;;;;;;8.13;4.50;;;;;;;17.99;100.00;102337.69;5059470;28;20028;-84
2023/06/06 08:21:29;;;;;;;11.80;5.18;;;;;;;18.02;100.00;102347.28;5075888;28;20349;-84
2023/06/06 08:23:55;;;;;;;12.50;5.35;;;;;;;18.09;100.00;102334.91;5058642;28;20034;-84
2023/06/06 08:26:25;;;;;;;12.77;6.13;;;;;;;18.13;100.00;102342.53;5075863;28;20032;-85
2023/06/06 08:28:51;;;;;;;10.30;5.03;;;;;;;18.25;100.00;102339.63;5094708;28;20036;-85
2023/06/06 08:31:16;;;;;;;13.57;5.15;;;;;;;18.15;100.00;102337.00;5098312;28;20028;-85
2023/06/06 08:33:42;;;;;;;8.98;4.78;;;;;;;18.23;100.00;102333.56;5079518;28;20036;-83
2023/06/06 08:36:08;;;;;;;12.07;5.05;;;;;;;18.36;100.00;102333.16;5098427;28;20088;-84
2023/06/06 08:38:33;;;;;;;13.35;4.60;;;;;;;18.57;100.00;102330.13;5079503;28;20120;-84
2023/06/06 08:41:00;;;;;;;15.05;5.03;;;;;;;18.74;100.00;102331.97;5079690;28;20043;-84
2023/06/06 08:43:27;;;;;;;9.35;4.40;;;;;;;18.93;100.00;102330.97;5098155;28;20032;-81
2023/06/06 08:45:56;;;;;;;9.85;4.50;;;;;;;19.03;100.00;102329.00;5098366;28;20039;-83
2023/06/06 08:48:26;;;;;;;12.50;4.60;;;;;;;19.31;100.00;102330.69;5097711;28;20118;-83
2023/06/06 08:50:52;;;;;;;11.88;5.55;;;;;;;19.48;100.00;102332.47;5079419;28;20024;-83
2023/06/06 08:53:19;;;;;;;10.82;4.95;;;;;;;19.54;100.00;102333.63;5097039;28;20083;-85
2023/06/06 08:55:44;;;;;;;7.38;4.35;;;;;;;19.72;100.00;102323.59;5096837;28;20068;-84
2023/06/06 08:58:13;;;;;;;13.48;5.60;;;;;;;19.83;99.57;102322.47;5097222;28;20123;-85
2023/06/06 09:00:39;;;;;;;11.25;4.88;;;;;;;20.18;100.00;102331.34;5097444;28;20032;-85
2023/06/06 09:03:09;;;;;;;13.48;4.65;;;;;;;20.83;100.00;102329.69;5079512;28;20032;-85
2023/06/06 09:05:38;;;;;;;10.00;4.53;;;;;;;21.25;91.93;102328.56;5096874;28;20388;-84
2023/06/06 09:08:04;;;;;;;12.88;4.95;;;;;;;21.65;79.37;102323.22;5079676;28;20044;-84
2023/06/06 09:10:29;;;;;;;13.55;4.72;;;;;;;21.94;87.01;102330.66;5096957;28;20036;-85
2023/06/06 09:12:54;;;;;;;16.30;5.35;;;;;;;22.13;80.37;102320.41;5097096;28;20512;-85
2023/06/06 09:15:20;;;;;;;10.90;4.30;;;;;;;22.21;71.81;102314.91;5078994;28;20533;-84
2023/06/06 09:17:46;;;;;;;12.50;5.10;;;;;;;22.15;73.82;102313.78;5097883;28;20032;-82
2023/06/06 09:20:15;;;;;;;7.57;4.97;;;;;;;22.40;72.52;102319.03;5100208;28;20035;-84
2023/06/06 09:22:50;;;;;;;13.82;4.82;;;;;;;22.36;71.05;102315.84;5102512;28;20051;-85
2023/06/06 09:25:22;;;;;;;8.93;3.83;;;;;;;22.50;78.75;102322.34;5102353;28;20477;-84
2023/06/06 09:27:52;;;;;;;9.77;4.82;;;;;;;22.64;68.25;102317.97;5083827;28;20492;-84
2023/06/06 09:30:22;;;;;;;12.45;4.90;;;;;;;22.69;68.52;102320.13;5100451;28;20093;-85
2023/06/06 09:32:58;;;;;;;10.43;4.18;;;;;;;22.69;79.22;102318.28;5100452;28;20028;-86
2023/06/06 09:35:34;;;;;;;11.35;4.88;;;;;;;22.81;68.10;102312.38;5098026;28;20024;-86
2023/06/06 09:38:17;;;;;;;12.25;4.70;;;;;;;22.72;71.61;102314.31;5079631;28;20039;-84
2023/06/06 09:40:47;;;;;;;9.80;4.45;;;;;;;22.74;65.53;102304.16;5095665;28;20097;-84
2023/06/06 09:43:15;;;;;;;16.38;4.78;;;;;;;22.66;65.95;102306.94;5096696;28;20039;-85
2023/06/06 09:45:48;;;;;;;13.85;4.57;;;;;;;22.74;67.93;102311.47;5096415;28;20065;-85
2023/06/06 09:48:19;;;;;;;12.15;4.65;;;;;;;22.75;68.88;102305.00;5096893;28;20034;-85
2023/06/06 09:50:45;;;;;;;9.43;4.05;;;;;;;22.80;70.97;102302.56;5102629;28;20486;-85
2023/06/06 09:53:12;;;;;;;12.63;4.20;;;;;;;22.83;66.80;102289.47;5078202;28;20083;-85
2023/06/06 09:55:39;;;;;;;8.93;4.35;;;;;;;23.12;66.47;102306.00;5095988;28;20036;-84
2023/06/06 09:58:07;;;;;;;8.38;4.28;;;;;;;23.24;65.93;102301.75;5096077;28;20028;-83
2023/06/06 10:00:37;;;;;;;13.98;5.47;;;;;;;23.36;62.56;102302.13;5096086;28;20480;-84
2023/06/06 10:03:04;;;;;;;14.43;5.13;;;;;;;23.20;64.72;102301.31;5096656;28;20093;-85
2023/06/06 10:05:31;;;;;;;8.57;4.35;;;;;;;23.27;67.69;102292.41;5095694;28;20468;-85
2023/06/06 10:07:57;;;;;;;8.88;4.55;;;;;;;23.53;74.75;102306.34;5096017;28;20024;-84
2023/06/06 10:10:23;;;;;;;10.27;4.53;;;;;;;23.42;63.93;102302.25;5096213;28;20120;-84
2023/06/06 10:12:50;;;;;;;9.63;4.60;;;;;;;23.31;71.30;102301.88;5096352;28;20043;-85
2023/06/06 10:15:17;;;;;;;10.07;5.20;;;;;;;23.21;61.13;102308.44;5095751;28;20459;-84
2023/06/06 10:17:44;;;;;;;10.25;5.18;;;;;;;23.26;61.83;102301.56;5078318;28;20415;-84
2023/06/06 10:20:12;;;;;;;8.45;4.30;;;;;;;23.48;66.46;102303.31;5095646;28;20157;-84
2023/06/06 10:22:41;;;;;;;9.43;4.82;;;;;;;23.64;63.50;102294.13;5095092;28;20464;-85
2023/06/06 10:25:12;;;;;;;9.65;4.53;;;;;;;23.73;63.65;102294.84;5060908;28;20476;-84
2023/06/06 10:27:38;;;;;;;;;;;;;;;23.79;60.20;102298.69;5095818;28;20039;-85
2023/06/06 10:30:23;;;;;;;14.02;4.50;;;;;;;24.02;60.71;102298.53;5095347;28;19908;-84
2023/06/06 10:33:26;;;;;;;6.72;4.30;;;;;;;24.42;58.35;102298.91;5095334;28;20040;-85
2023/06/06 10:35:56;;;;;;;11.80;4.90;;;;;;;24.90;53.87;102300.97;5095048;28;20486;-83
2023/06/06 10:38:21;;;;;;;9.45;4.25;;;;;;;25.19;56.14;102302.63;5094599;28;20431;-82
2023/06/06 10:40:51;;;;;;;9.50;4.50;;;;;;;25.35;54.00;102298.75;5077006;28;20114;-83
2023/06/06 10:43:43;;;;;;;10.52;4.10;;;;;;;25.56;54.89;102291.47;5094561;28;20085;-83
2023/06/06 10:46:10;;;;;;;8.75;3.53;;;;;;;25.84;54.16;102296.81;5095166;28;20115;-84
2023/06/06 10:48:39;;;;;;;8.85;4.03;;;;;;;25.99;53.20;102294.78;5095360;28;20032;-82
2023/06/06 10:51:25;;;;;;;12.80;4.67;;;;;;;26.20;50.75;102301.13;5095705;28;20051;-83
2023/06/06 10:54:12;;;;;;;9.23;4.20;;;;;;;26.60;50.36;102286.63;5097158;28;20050;-83
2023/06/06 10:56:43;;;;;;;13.77;4.22;;;;;;;26.74;49.74;102283.69;5096304;28;20048;-81
2023/06/06 10:59:10;;;;;;;13.82;3.63;;;;;;;26.91;48.89;102289.53;5097632;28;20038;-86
2023/06/06 11:01:40;;;;;;;15.23;3.40;;;;;;;27.14;47.71;102282.78;5077705;28;20044;-85
2023/06/06 11:04:23;;;;;;;14.65;3.20;;;;;;;27.37;47.13;102286.91;5095490;28;20032;-82
2023/06/06 11:06:51;;;;;;;15.10;3.53;;;;;;;27.39;48.93;102293.81;5095232;28;20028;-86
2023/06/06 11:09:22;;;;;;;14.07;3.67;;;;;;;27.70;46.13;102291.38;5059770;28;20491;-81
2023/06/06 11:11:48;;;;;;;16.92;3.58;;;;;;;27.28;45.89;102280.81;5094257;28;20032;-81
2023/06/06 11:14:14;;;;;;;8.68;3.10;;;;;;;27.13;47.05;102283.00;5094782;28;20120;-80
2023/06/06 11:16:39;;;;;;;9.40;3.30;;;;;;;27.13;46.73;102278.34;5076265;28;20386;-85